Time;durP1;ratioP1;P1;durP2;ratioP2;P2;SDS_P1;SDS_P2;PMS_P1;PMS_P2;Temp;Humidity;BMP_temperature;BMP_pressure;BME280_temperature;BME280_humidity;BME280_pressure;Samples;Min_cycle;Max_cycle;Signal;HPM_P1;HPM_P2
2021/01/05 00:01:18;;;;;;;20.63;15.83;;;1.00;99.90;;;1.93;82.44;97291.00;5206132;28;20225;-75
2021/01/05 00:03:50;;;;;;;19.13;15.97;;;1.00;99.90;;;1.93;82.51;97291.00;5205230;28;20285;-76
2021/01/05 00:06:22;;;;;;;17.30;15.50;;;1.00;99.90;;;1.94;82.20;97282.66;5206347;28;20225;-75
2021/01/05 00:08:54;;;;;;;19.63;16.10;;;1.10;99.90;;;1.96;83.11;97291.25;5204874;28;20208;-75
2021/01/05 00:11:27;;;;;;;19.90;16.10;;;1.10;99.90;;;1.97;82.41;97282.91;5205709;28;20244;-76
2021/01/05 00:13:59;;;;;;;19.47;15.90;;;1.10;99.90;;;2.02;83.17;97281.66;5197782;28;20199;-76
2021/01/05 00:16:32;;;;;;;17.17;15.23;;;1.10;99.90;;;2.08;82.05;97292.22;5185252;28;20698;-76
2021/01/05 00:19:04;;;;;;;18.40;14.93;;;1.00;99.90;;;2.15;81.81;97293.59;5184527;28;20202;-76
2021/01/05 00:21:36;;;;;;;17.30;14.90;;;1.00;99.90;;;2.07;83.13;97292.97;5184241;28;20580;-76
2021/01/05 00:24:08;;;;;;;18.73;15.47;;;1.10;99.90;;;2.06;82.70;97291.22;5185018;28;20209;-76
2021/01/05 00:26:40;;;;;;;16.83;14.93;;;1.00;99.90;;;1.97;82.97;97285.44;5186609;28;20603;-76
2021/01/05 00:29:13;;;;;;;18.60;15.33;;;1.00;99.90;;;2.05;83.53;97291.09;5184399;28;20206;-75
2021/01/05 00:31:46;;;;;;;18.20;15.20;;;1.00;99.90;;;2.08;83.18;97292.22;5185658;28;20252;-76
2021/01/05 00:34:18;;;;;;;18.83;15.60;;;1.00;99.90;;;1.95;83.82;97294.53;5199085;28;20226;-76
2021/01/05 00:36:50;;;;;;;18.93;15.73;;;1.10;99.90;;;1.97;83.68;97303.94;5185242;28;20199;-76
2021/01/05 00:39:22;;;;;;;18.77;16.70;;;1.00;99.90;;;2.03;83.37;97299.41;5184295;28;20210;-75
2021/01/05 00:41:54;;;;;;;19.70;15.73;;;1.00;99.90;;;2.00;83.00;97298.28;5205063;28;20590;-75
2021/01/05 00:44:26;;;;;;;18.53;15.83;;;1.00;99.90;;;1.98;82.92;97295.66;5205128;28;20208;-76
2021/01/05 00:46:59;;;;;;;20.23;15.80;;;1.00;99.90;;;1.93;83.73;97296.03;5204393;28;20230;-75
2021/01/05 00:49:31;;;;;;;19.10;16.10;;;0.90;99.90;;;1.88;83.61;97300.69;5191267;28;20204;-75
2021/01/05 00:52:03;;;;;;;20.27;17.20;;;1.00;99.90;;;1.84;84.09;97302.84;5184622;28;20595;-76
2021/01/05 00:54:37;;;;;;;17.40;15.23;;;0.90;99.90;;;1.84;84.19;97300.34;5184407;28;20573;-75
2021/01/05 00:57:11;;;;;;;19.33;16.67;;;0.90;99.90;;;1.93;84.52;97291.88;5184145;28;20201;-76
2021/01/05 00:59:43;;;;;;;18.10;15.23;;;1.00;99.90;;;1.92;83.46;97295.16;5185139;28;20264;-75
2021/01/05 01:02:16;;;;;;;19.07;16.30;;;1.00;99.90;;;1.90;84.64;97298.31;5184757;28;20312;-76
2021/01/05 01:04:48;;;;;;;19.03;16.80;;;1.00;99.90;;;1.75;83.98;97306.38;5204264;28;20663;-76
2021/01/05 01:07:20;;;;;;;21.23;17.07;;;0.90;99.90;;;1.75;84.10;97293.78;5202332;28;20233;-76
2021/01/05 01:09:52;;;;;;;19.03;15.90;;;0.80;99.90;;;1.76;84.86;97299.69;5204529;28;20201;-76
2021/01/05 01:12:25;;;;;;;19.20;16.23;;;0.90;99.90;;;1.83;84.63;97301.06;5204507;28;20308;-76
2021/01/05 01:14:57;;;;;;;20.47;16.43;;;1.00;99.90;;;1.90;84.33;97300.81;5204790;28;20201;-76
2021/01/05 01:17:30;;;;;;;21.43;17.43;;;1.00;99.90;;;2.04;84.34;97305.34;5203972;28;20285;-75
2021/01/05 01:20:05;;;;;;;20.73;17.07;;;1.00;99.90;;;1.98;84.00;97294.78;5203498;28;20200;-76
2021/01/05 01:22:37;;;;;;;20.67;17.17;;;1.00;99.90;;;1.88;83.96;97307.38;5191659;28;20225;-75
2021/01/05 01:25:10;;;;;;;20.83;17.73;;;0.90;99.90;;;1.88;84.32;97314.94;5184682;28;20572;-76
2021/01/05 01:27:42;;;;;;;21.60;17.83;;;0.90;99.90;;;1.93;84.14;97312.03;5199779;28;20218;-76
2021/01/05 01:30:16;;;;;;;20.93;17.53;;;1.00;99.90;;;1.93;83.92;97312.03;5190734;28;20197;-75
2021/01/05 01:32:49;;;;;;;19.73;16.77;;;1.00;99.90;;;1.89;84.28;97305.00;5192945;28;20235;-76
2021/01/05 01:35:21;;;;;;;20.87;17.37;;;1.00;99.90;;;1.92;84.79;97305.25;5201438;28;20208;-75
2021/01/05 01:37:53;;;;;;;20.57;17.40;;;1.00;99.90;;;1.93;84.66;97301.94;5204152;28;20203;-76
2021/01/05 01:40:35;;;;;;;20.33;17.50;;;1.00;99.90;;;1.95;84.55;97310.53;5204209;28;20678;-75
2021/01/05 01:43:08;;;;;;;22.20;17.07;;;1.00;99.90;;;2.02;83.97;97307.72;5196247;28;20248;-75
2021/01/05 01:45:40;;;;;;;19.07;16.57;;;0.90;99.90;;;2.00;84.18;97309.25;5191197;28;20430;-75
2021/01/05 01:48:13;;;;;;;19.80;16.57;;;0.90;99.90;;;2.01;84.17;97310.13;5203178;28;20567;-76
2021/01/05 01:50:45;;;;;;;19.47;16.43;;;0.90;99.90;;;2.05;83.68;97312.13;5204175;28;20226;-75
2021/01/05 01:54:10;;;;;;;19.80;17.17;;;1.00;99.90;;;1.89;84.61;97309.13;5196787;28;20301;-76
2021/01/05 01:57:20;;;;;;;19.50;16.30;;;0.90;99.90;;;1.88;84.59;97309.88;5142088;28;20193;-75
2021/01/05 02:00:20;;;;;;;21.57;17.43;;;1.00;99.90;;;1.80;84.41;97305.13;5183061;28;20213;-76
2021/01/05 02:03:21;;;;;;;19.60;17.40;;;0.90;99.90;;;1.76;84.35;97305.63;5183338;28;20227;-76
2021/01/05 02:06:11;;;;;;;19.00;16.90;;;0.90;99.90;;;1.85;85.17;97302.09;5200732;28;20204;-76
2021/01/05 02:09:01;;;;;;;20.00;17.00;;;1.00;99.90;;;1.84;85.11;97301.22;5203903;28;20196;-75
2021/01/05 02:11:59;;;;;;;23.37;17.97;;;1.00;99.90;;;1.88;85.45;97302.34;5204233;28;20222;-75
2021/01/05 02:15:02;;;;;;;20.90;17.97;;;1.00;99.90;;;1.92;84.87;97302.72;5191315;28;20199;-75
2021/01/05 02:18:23;;;;;;;19.73;17.07;;;1.00;99.90;;;1.99;84.65;97304.09;5183347;28;20346;-75
2021/01/05 02:21:01;;;;;;;19.20;16.43;;;1.00;99.90;;;2.04;84.09;97305.34;5201225;28;20558;-76
2021/01/05 02:24:13;;;;;;;19.10;16.03;;;1.00;99.90;;;2.08;83.40;97299.78;5203987;28;20292;-76
2021/01/05 02:26:53;;;;;;;21.83;16.97;;;1.00;99.90;;;2.05;84.67;97309.59;5203062;28;20227;-75
2021/01/05 02:29:28;;;;;;;20.87;16.87;;;1.00;99.90;;;2.05;83.72;97296.13;5203208;28;20199;-75
2021/01/05 02:32:16;;;;;;;22.60;17.63;;;1.00;99.90;;;2.06;83.85;97293.75;5189809;28;20670;-76
2021/01/05 02:35:11;;;;;;;23.43;17.47;;;1.00;99.90;;;2.08;83.60;97292.22;5203511;28;20202;-76
2021/01/05 02:37:56;;;;;;;21.53;17.03;;;1.00;99.90;;;1.99;84.08;97294.88;5203266;28;20195;-76
2021/01/05 02:40:43;;;;;;;20.73;16.73;;;1.00;99.90;;;1.98;83.67;97285.56;5203489;28;20229;-76
2021/01/05 02:43:53;;;;;;;23.23;18.00;;;1.00;99.90;;;2.00;83.90;97289.09;5203847;28;20221;-75
2021/01/05 02:46:40;;;;;;;24.83;18.00;;;1.00;99.90;;;2.11;83.79;97287.41;5206883;28;20232;-76
2021/01/05 02:49:29;;;;;;;21.27;17.80;;;1.00;99.90;;;2.06;83.17;97286.19;5206219;28;20204;-75
2021/01/05 02:52:53;;;;;;;22.47;17.37;;;1.00;99.90;;;2.03;84.44;97289.34;5187519;28;20590;-76
2021/01/05 02:56:10;;;;;;;21.27;17.30;;;1.00;99.90;;;2.00;83.86;97290.72;5186737;28;20195;-76
2021/01/05 02:59:06;;;;;;;21.83;17.77;;;1.00;99.90;;;1.96;84.03;97284.56;5206249;28;20198;-76
2021/01/05 03:02:21;;;;;;;20.47;17.27;;;1.00;99.90;;;1.95;85.12;97284.44;5206986;28;20227;-76
2021/01/05 03:04:53;;;;;;;22.13;17.73;;;1.10;99.90;;;1.95;84.51;97280.28;5169352;28;20199;-76
2021/01/05 03:07:28;;;;;;;22.70;17.47;;;1.10;99.90;;;2.02;84.26;97282.53;5186598;28;20223;-76
2021/01/05 03:10:29;;;;;;;21.20;16.63;;;1.00;99.90;;;2.00;83.96;97279.03;5202947;28;20661;-76
2021/01/05 03:13:39;;;;;;;21.20;17.47;;;1.00;99.90;;;1.92;84.48;97279.16;5207282;28;20613;-76
2021/01/05 03:16:20;;;;;;;21.27;17.07;;;1.00;99.90;;;1.83;84.11;97279.28;5206684;28;20190;-76
2021/01/05 03:19:05;;;;;;;22.07;16.77;;;1.00;99.90;;;1.78;84.51;97276.41;5204950;28;20197;-76
2021/01/05 03:21:43;;;;;;;23.00;17.90;;;1.00;99.90;;;1.82;85.06;97275.00;5207277;28;20444;-76
2021/01/05 03:24:16;;;;;;;23.20;17.77;;;1.00;99.90;;;1.88;84.23;97277.13;5206356;28;20199;-76
2021/01/05 03:26:50;;;;;;;21.20;16.93;;;1.00;99.90;;;1.95;85.13;97284.44;5207191;28;20222;-75
2021/01/05 03:29:22;;;;;;;20.00;16.60;;;1.00;99.90;;;1.90;84.74;97273.13;5205600;28;20208;-76
2021/01/05 03:32:01;;;;;;;21.97;18.67;;;1.00;99.90;;;1.89;84.38;97277.28;5206680;28;20229;-76
2021/01/05 03:34:34;;;;;;;21.67;18.03;;;1.00;99.90;;;2.01;84.57;97277.38;5197970;28;20296;-76
2021/01/05 03:37:07;;;;;;;24.20;17.90;;;1.00;99.90;;;1.97;84.74;97285.44;5186606;28;20212;-76
2021/01/05 03:39:39;;;;;;;20.73;17.97;;;1.00;99.90;;;1.94;84.54;97280.16;5185475;28;20238;-76
2021/01/05 03:42:11;;;;;;;22.30;18.47;;;1.00;99.90;;;1.91;85.13;97274.88;5186040;28;20215;-76
2021/01/05 03:44:43;;;;;;;23.20;18.40;;;1.00;99.90;;;1.84;85.65;97280.19;5186036;28;20470;-76
2021/01/05 03:47:16;;;;;;;21.43;17.67;;;1.00;99.90;;;1.83;85.61;97278.41;5185603;28;20219;-76
2021/01/05 03:49:48;;;;;;;21.90;17.77;;;1.00;99.90;;;1.78;85.91;97271.38;5185816;28;20206;-76
2021/01/05 03:52:23;;;;;;;21.30;17.77;;;0.90;99.90;;;1.82;86.43;97276.66;5185273;28;20318;-76
2021/01/05 03:54:56;;;;;;;22.40;18.43;;;1.00;99.90;;;1.92;86.12;97276.66;5186252;28;20200;-76
2021/01/05 03:57:28;;;;;;;22.90;18.30;;;1.00;99.90;;;1.95;86.23;97279.41;5184674;28;20219;-76
2021/01/05 04:00:00;;;;;;;20.77;17.37;;;1.00;99.90;;;1.90;86.21;97280.66;5185819;28;20294;-76
2021/01/05 04:02:33;;;;;;;22.03;17.93;;;1.00;99.90;;;1.90;86.83;97284.06;5187742;28;20300;-76
2021/01/05 04:05:08;;;;;;;22.57;18.37;;;1.00;99.90;;;1.94;86.77;97288.56;5205977;28;20202;-76
2021/01/05 04:07:40;;;;;;;23.37;18.53;;;1.00;99.90;;;1.93;86.28;97283.44;5199160;28;20300;-76
2021/01/05 04:10:13;;;;;;;21.60;18.47;;;1.00;99.90;;;1.88;87.22;97280.53;5186250;28;20577;-76
2021/01/05 04:12:45;;;;;;;22.97;18.70;;;1.00;99.90;;;1.88;87.12;97270.44;5185774;28;20695;-76
2021/01/05 04:15:21;;;;;;;24.47;19.17;;;1.00;99.90;;;1.86;87.59;97276.13;5185683;28;20200;-75
2021/01/05 04:17:56;;;;;;;23.63;18.87;;;1.00;99.90;;;2.07;87.14;97279.50;5189900;28;20205;-76
2021/01/05 04:20:30;;;;;;;23.37;18.03;;;1.00;99.90;;;2.02;86.08;97279.13;5185448;28;20575;-76
2021/01/05 04:23:02;;;;;;;22.00;17.83;;;1.00;99.90;;;2.04;85.65;97275.09;5185322;28;20228;-76
2021/01/05 04:25:35;;;;;;;21.60;17.47;;;1.00;99.90;;;1.98;86.48;97279.66;5185013;28;20202;-76
2021/01/05 04:28:07;;;;;;;19.90;16.77;;;1.00;99.90;;;1.92;86.57;97275.00;5185365;28;20231;-76
2021/01/05 04:30:38;;;;;;;22.03;17.83;;;1.00;99.90;;;1.93;87.03;97273.34;5185092;28;20195;-76
2021/01/05 04:33:13;;;;;;;22.87;18.63;;;1.00;99.90;;;1.92;86.60;97281.69;5185370;28;20219;-76
2021/01/05 04:35:45;;;;;;;24.27;18.63;;;1.00;99.90;;;1.90;86.91;97281.53;5194896;28;20204;-76
2021/01/05 04:38:17;;;;;;;23.83;18.40;;;1.00;99.90;;;1.88;86.81;97285.56;5204737;28;20210;-76
2021/01/05 04:40:51;;;;;;;23.40;18.73;;;1.00;99.90;;;1.89;86.88;97289.88;5205142;28;20195;-76
2021/01/05 04:43:45;;;;;;;23.57;19.57;;;1.00;99.90;;;1.92;87.47;97286.72;5205345;28;20231;-76
2021/01/05 04:46:36;;;;;;;22.37;18.63;;;1.00;99.90;;;1.93;87.55;97285.94;5204483;28;20194;-76
2021/01/05 04:49:56;;;;;;;24.33;19.53;;;1.00;99.90;;;1.97;87.43;97287.94;5195823;28;20190;-76
2021/01/05 04:52:35;;;;;;;23.80;18.70;;;1.00;99.90;;;1.94;87.31;97288.56;5184656;28;20218;-76
2021/01/05 04:55:45;;;;;;;25.43;19.10;;;1.00;99.90;;;1.96;87.42;97287.06;5186597;28;20213;-75
2021/01/05 04:58:26;;;;;;;22.80;18.67;;;1.00;99.90;;;1.87;87.58;97290.50;5205186;28;20656;-76
2021/01/05 05:01:01;;;;;;;21.50;18.23;;;1.00;99.90;;;1.90;86.84;97291.63;5204337;28;20202;-76
2021/01/05 05:03:42;;;;;;;22.27;18.10;;;1.00;99.90;;;1.94;87.61;97293.63;5204422;28;20196;-76
2021/01/05 05:06:34;;;;;;;26.47;19.67;;;1.10;99.90;;;1.95;86.99;97297.03;5205160;28;20297;-76
2021/01/05 05:09:28;;;;;;;25.83;20.30;;;1.10;99.90;;;1.96;87.78;97291.25;5202827;28;20201;-76
2021/01/05 05:12:18;;;;;;;24.83;19.57;;;1.10;99.90;;;2.01;86.90;97297.53;5204317;28;20229;-76
2021/01/05 05:15:02;;;;;;;25.47;19.57;;;1.10;99.90;;;1.98;87.18;97295.66;5204815;28;20608;-76
2021/01/05 05:18:08;;;;;;;23.73;19.03;;;1.10;99.90;;;1.94;87.37;97293.63;5204508;28;20196;-76
2021/01/05 05:21:05;;;;;;;25.60;19.73;;;1.00;99.90;;;1.76;86.55;97298.06;5204019;28;20580;-76
2021/01/05 05:24:17;;;;;;;24.63;19.77;;;0.90;99.90;;;1.89;86.69;97304.09;5205114;28;20211;-76
2021/01/05 05:26:56;;;;;;;25.00;20.50;;;1.00;99.90;;;1.98;87.77;97304.84;5188498;28;20301;-76
2021/01/05 05:29:44;;;;;;;22.93;19.10;;;1.00;99.90;;;2.06;86.43;97313.91;5184322;28;20204;-76
2021/01/05 05:32:27;;;;;;;23.77;18.20;;;1.00;99.90;;;2.07;86.81;97305.59;5184132;28;20313;-76
2021/01/05 05:35:51;;;;;;;22.70;18.93;;;1.10;99.90;;;2.00;86.05;97303.31;5185354;28;20278;-76
2021/01/05 05:38:39;;;;;;;24.20;17.77;;;1.10;99.90;;;2.00;86.37;97304.22;5179221;28;20215;-76
2021/01/05 05:41:29;;;;;;;23.30;17.73;;;1.10;99.90;;;2.04;86.18;97310.38;5194959;28;20214;-76
2021/01/05 05:44:24;;;;;;;25.97;19.53;;;1.10;99.90;;;2.14;86.14;97315.38;5186585;28;20207;-76
2021/01/05 05:47:05;;;;;;;22.80;18.87;;;1.00;99.90;;;2.15;86.40;97324.72;5204720;28;20574;-76
2021/01/05 05:49:47;;;;;;;22.80;19.47;;;1.10;99.90;;;2.18;85.69;97319.94;5202950;28;20208;-76
2021/01/05 05:52:31;;;;;;;24.60;19.50;;;1.10;99.90;;;2.11;85.92;97317.66;5203719;28;20693;-76
2021/01/05 05:55:17;;;;;;;24.13;19.53;;;1.20;99.90;;;1.94;86.44;97320.47;5204094;28;20222;-75
2021/01/05 05:57:54;;;;;;;23.63;19.20;;;1.10;99.90;;;1.95;86.67;97327.28;5200227;28;20198;-76
2021/01/05 06:00:36;;;;;;;24.23;19.07;;;1.10;99.90;;;2.00;86.90;97328.50;5186960;28;20194;-76
2021/01/05 06:03:15;;;;;;;22.70;17.43;;;1.10;99.90;;;2.00;86.46;97328.50;5185933;28;20210;-76
2021/01/05 06:05:47;;;;;;;24.13;19.57;;;1.10;99.90;;;1.97;86.86;97333.31;5196712;28;20189;-76
2021/01/05 06:08:21;;;;;;;24.73;18.90;;;1.10;99.90;;;1.93;86.45;97321.22;5199409;28;20645;-76
2021/01/05 06:10:53;;;;;;;24.97;20.73;;;1.00;99.90;;;2.00;87.67;97329.41;5203664;28;20205;-76
2021/01/05 06:13:26;;;;;;;25.60;20.03;;;1.10;99.90;;;2.10;86.36;97331.03;5187481;28;20222;-76
2021/01/05 06:15:58;;;;;;;24.97;19.60;;;1.10;99.90;;;2.04;86.40;97330.53;5191231;28;20197;-76
2021/01/05 06:18:31;;;;;;;23.63;19.27;;;1.10;99.90;;;2.02;87.15;97332.03;5202577;28;20283;-76
2021/01/05 06:21:03;;;;;;;25.50;19.67;;;1.10;99.90;;;2.08;86.79;97331.66;5188604;28;20205;-77
2021/01/05 06:23:35;;;;;;;25.97;20.57;;;1.10;99.90;;;2.16;86.24;97335.69;5188111;28;20226;-77
2021/01/05 06:26:07;;;;;;;26.00;19.37;;;1.10;99.90;;;2.17;86.92;97332.41;5224905;28;20567;-76
2021/01/05 06:28:40;;;;;;;25.37;19.47;;;1.10;99.90;;;2.15;87.20;97334.81;5186648;28;20210;-76
2021/01/05 06:31:13;;;;;;;28.67;19.17;;;1.10;99.90;;;2.18;86.12;97340.09;5186326;28;20545;-76
2021/01/05 06:33:45;;;;;;;26.80;20.33;;;1.10;99.90;;;2.11;86.50;97345.38;5188399;28;20219;-77
2021/01/05 06:36:17;;;;;;;26.70;20.07;;;1.10;99.90;;;2.04;87.24;97340.63;5188687;28;20210;-76
2021/01/05 06:38:49;;;;;;;27.17;20.07;;;1.10;99.90;;;1.99;87.19;97346.91;5208221;28;20208;-77
2021/01/05 06:41:21;;;;;;;26.63;21.17;;;1.10;99.90;;;1.99;86.54;97357.00;5196435;28;20503;-76
2021/01/05 06:43:54;;;;;;;27.17;20.30;;;1.10;99.90;;;1.96;87.08;97347.56;5189723;28;20671;-77
2021/01/05 06:46:27;;;;;;;24.83;19.30;;;1.20;99.90;;;1.98;87.17;97352.72;5199492;28;20197;-76
2021/01/05 06:48:59;;;;;;;27.13;20.57;;;1.20;99.90;;;2.00;87.22;97359.66;5204089;28;20830;-76
2021/01/05 06:51:31;;;;;;;25.97;20.77;;;1.20;99.90;;;1.99;87.67;97359.53;5187242;28;20217;-77
2021/01/05 06:54:04;;;;;;;28.30;20.57;;;1.20;99.90;;;1.98;87.79;97360.28;5199453;28;20289;-76
2021/01/05 06:56:49;;;;;;;29.00;22.50;;;1.10;99.90;;;2.02;87.41;97362.28;5207446;28;20326;-76
2021/01/05 06:59:23;;;;;;;26.37;19.13;;;1.20;99.90;;;2.01;88.16;97365.56;5200057;28;20208;-76
2021/01/05 07:01:59;;;;;;;26.17;20.07;;;1.20;99.90;;;1.99;88.07;97362.91;5215103;28;20222;-76
2021/01/05 07:04:32;;;;;;;26.27;20.30;;;1.20;99.90;;;2.00;88.25;97368.84;5211310;28;20225;-77
2021/01/05 07:07:04;;;;;;;36.33;23.13;;;1.20;99.90;;;1.99;88.75;97378.03;5184711;28;20702;-77
2021/01/05 07:09:36;;;;;;;63.50;32.53;;;1.10;99.90;;;2.00;88.29;97368.84;5183488;28;20662;-76
2021/01/05 07:12:08;;;;;;;45.23;24.90;;;1.10;99.90;;;1.98;88.06;97370.38;5184587;28;20235;-76
2021/01/05 07:14:41;;;;;;;32.50;22.23;;;1.20;99.90;;;1.98;89.00;97375.41;5196094;28;20208;-76
2021/01/05 07:17:13;;;;;;;29.73;21.53;;;1.20;99.90;;;1.96;89.06;97382.81;5204479;28;20368;-77
2021/01/05 07:19:45;;;;;;;31.67;22.47;;;1.10;99.90;;;1.96;88.00;97381.94;5189114;28;20205;-76
2021/01/05 07:22:17;;;;;;;26.07;21.20;;;1.10;99.90;;;1.96;88.49;97381.94;5184311;28;20241;-76
2021/01/05 07:24:49;;;;;;;29.27;21.67;;;1.10;99.90;;;1.93;88.76;97381.69;5184111;28;20224;-76
2021/01/05 07:27:21;;;;;;;28.17;21.17;;;1.20;99.90;;;1.97;88.77;97391.25;5183709;28;20252;-76
2021/01/05 07:29:54;;;;;;;29.33;21.43;;;1.20;99.90;;;2.10;88.80;97381.44;5190013;28;20213;-76
2021/01/05 07:32:26;;;;;;;32.17;21.20;;;1.20;99.90;;;2.07;88.24;97378.66;5203027;28;20299;-75
2021/01/05 07:34:58;;;;;;;29.13;20.80;;;1.20;99.90;;;2.07;88.71;97386.22;5203875;28;20204;-76
2021/01/05 07:37:38;;;;;;;28.77;21.87;;;1.10;99.90;;;2.04;88.31;97391.03;5203447;28;20579;-76
2021/01/05 07:40:14;;;;;;;28.03;20.87;;;1.20;99.90;;;2.02;89.27;97388.38;5203260;28;20214;-76
2021/01/05 07:42:46;;;;;;;28.93;21.20;;;1.20;99.90;;;2.01;88.72;97395.81;5204813;28;20261;-76
2021/01/05 07:45:22;;;;;;;30.10;20.93;;;1.20;99.90;;;2.03;88.86;97391.75;5193271;28;20281;-76
2021/01/05 07:47:54;;;;;;;29.67;20.97;;;1.20;99.90;;;2.03;88.88;97395.19;5182566;28;20223;-76
2021/01/05 07:50:27;;;;;;;28.13;21.30;;;1.20;99.90;;;2.04;88.62;97391.03;5182681;28;20662;-76
2021/01/05 07:53:00;;;;;;;33.50;24.30;;;1.20;99.90;;;1.84;89.00;97391.91;5204228;28;20399;-76
2021/01/05 07:55:33;;;;;;;40.60;28.80;;;1.00;99.90;;;1.87;88.76;97392.16;5203541;28;20201;-76
2021/01/05 07:58:05;;;;;;;47.27;32.63;;;1.10;99.90;;;1.91;89.46;97399.19;5199518;28;20194;-76
2021/01/05 08:00:38;;;;;;;46.03;30.27;;;1.10;99.90;;;1.96;89.11;97392.91;5199536;28;20195;-76
2021/01/05 08:03:12;;;;;;;35.60;24.77;;;1.20;99.90;;;1.98;89.68;97395.56;5224826;28;20432;-77
2021/01/05 08:05:44;;;;;;;30.83;22.83;;;1.20;99.90;;;2.03;89.12;97389.25;5189478;28;20565;-76
2021/01/05 08:08:16;;;;;;;34.30;23.20;;;1.20;99.90;;;2.02;89.84;97398.44;5183563;28;20239;-76
2021/01/05 08:10:48;;;;;;;32.03;23.50;;;1.20;99.90;;;1.99;89.27;97398.19;5205182;28;20208;-76
2021/01/05 08:13:20;;;;;;;33.60;23.57;;;1.20;99.90;;;2.01;89.34;97398.34;5204680;28;20228;-75
2021/01/05 08:15:53;;;;;;;32.90;23.50;;;1.20;99.90;;;2.02;89.39;97397.56;5205571;28;20232;-76
2021/01/05 08:18:25;;;;;;;30.33;21.40;;;1.20;99.90;;;2.00;89.91;97394.03;5200663;28;20200;-75
2021/01/05 08:20:57;;;;;;;32.17;22.03;;;1.20;99.90;;;2.03;89.70;97394.28;5204028;28;20527;-76
2021/01/05 08:23:29;;;;;;;31.63;23.27;;;1.20;99.90;;;2.04;90.01;97391.03;5199946;28;20655;-74
2021/01/05 08:26:01;;;;;;;33.27;22.90;;;1.20;99.90;;;2.12;89.94;97395.06;5190424;28;20258;-76
2021/01/05 08:28:33;;;;;;;30.77;22.60;;;1.20;99.90;;;2.14;89.87;97402.72;5203196;28;20494;-76
2021/01/05 08:31:06;;;;;;;32.03;23.30;;;1.30;99.90;;;2.16;89.25;97401.22;5204091;28;20201;-76
2021/01/05 08:33:38;;;;;;;32.83;22.03;;;1.30;99.90;;;2.15;89.88;97394.44;5190961;28;20233;-76
2021/01/05 08:36:15;;;;;;;34.33;22.60;;;1.20;99.90;;;2.06;90.23;97394.56;5182713;28;20293;-76
2021/01/05 08:38:47;;;;;;;34.90;23.97;;;1.20;99.90;;;2.00;89.85;97394.03;5182607;28;20216;-76
2021/01/05 08:41:19;;;;;;;33.70;23.67;;;1.20;99.90;;;1.99;89.46;97395.69;5187174;28;20601;-76
2021/01/05 08:43:51;;;;;;;33.33;23.70;;;1.20;99.90;;;2.04;90.48;97393.53;5185228;28;20204;-78
2021/01/05 08:46:27;;;;;;;33.87;23.60;;;1.30;99.90;;;2.10;90.26;97396.56;5183921;28;20212;-77
2021/01/05 08:48:59;;;;;;;32.43;23.43;;;1.20;99.90;;;2.19;89.73;97399.81;5182575;28;20235;-76
2021/01/05 08:51:34;;;;;;;32.63;23.97;;;1.30;99.90;;;2.23;90.33;97393.38;5202287;28;20234;-76
2021/01/05 08:54:06;;;;;;;34.40;24.23;;;1.30;99.90;;;2.21;89.48;97389.88;5203250;28;20203;-76
2021/01/05 08:56:43;;;;;;;32.97;23.60;;;1.40;99.90;;;2.17;89.47;97393.78;5206395;28;20247;-77
2021/01/05 08:59:15;;;;;;;30.67;23.53;;;1.30;99.90;;;2.17;89.18;97393.78;5205227;28;20197;-77
2021/01/05 09:01:48;;;;;;;34.17;25.30;;;1.30;99.90;;;2.17;89.80;97381.16;5220278;28;20688;-77
2021/01/05 09:04:20;;;;;;;34.50;24.77;;;1.30;99.90;;;2.10;89.55;97386.47;5185759;28;20265;-78
2021/01/05 09:06:56;;;;;;;34.97;24.93;;;1.30;99.90;;;2.17;89.82;97393.78;5185852;28;20589;-77
2021/01/05 09:09:28;;;;;;;36.63;24.90;;;1.30;99.90;;;2.29;89.52;97398.03;5184776;28;20217;-77
2021/01/05 09:12:01;;;;;;;34.53;24.10;;;1.30;99.90;;;2.22;89.69;97405.13;5186397;28;21002;-77
2021/01/05 09:14:33;;;;;;;30.93;23.93;;;1.30;99.90;;;2.22;89.79;97394.16;5186178;28;20205;-77
2021/01/05 09:17:06;;;;;;;34.10;23.87;;;1.40;99.90;;;2.25;89.55;97401.97;5186175;28;20216;-77
2021/01/05 09:19:39;;;;;;;34.37;23.97;;;1.40;99.90;;;2.21;90.11;97400.84;5185731;28;20568;-77
2021/01/05 09:22:11;;;;;;;33.93;24.47;;;1.40;99.90;;;2.23;90.56;97393.38;5185561;28;20226;-78
2021/01/05 09:24:43;;;;;;;31.67;23.57;;;1.50;99.90;;;2.25;90.49;97395.28;5185874;28;20701;-77
2021/01/05 09:27:15;;;;;;;35.07;25.73;;;1.50;99.90;;;2.30;90.42;97387.22;5187077;28;20216;-77
2021/01/05 09:29:47;;;;;;;35.97;25.27;;;1.60;99.90;;;2.32;89.86;97398.28;5193070;28;20201;-77
2021/01/05 09:32:20;;;;;;;35.27;26.03;;;1.50;99.90;;;2.43;89.88;97389.94;5226254;28;20410;-77
2021/01/05 09:34:52;;;;;;;34.23;25.93;;;1.50;99.90;;;2.47;89.03;97394.50;5225855;28;20223;-77
2021/01/05 09:37:25;;;;;;;33.93;25.40;;;1.50;99.90;;;2.46;90.01;97401.19;5205297;28;20212;-77
2021/01/05 09:39:57;;;;;;;32.87;24.17;;;1.50;99.90;;;2.46;89.19;97393.63;5203916;28;20227;-77
2021/01/05 09:42:30;;;;;;;35.13;25.43;;;1.50;99.90;;;2.50;88.90;97399.78;5204987;28;20312;-77
2021/01/05 09:45:03;;;;;;;35.50;24.67;;;1.50;99.90;;;2.50;89.12;97393.88;5189347;28;20590;-76
2021/01/05 09:47:36;;;;;;;33.63;25.13;;;1.70;99.90;;;2.50;89.29;97396.38;5212482;28;20226;-77
2021/01/05 09:50:10;;;;;;;33.83;24.23;;;1.60;99.90;;;2.47;89.60;97397.91;5191201;28;20294;-77
2021/01/05 09:52:42;;;;;;;38.60;25.50;;;1.60;99.90;;;2.48;88.17;97388.69;5193506;28;20543;-77
2021/01/05 09:55:15;;;;;;;37.40;24.97;;;1.60;99.90;;;2.47;88.72;97384.41;5186718;28;20676;-77
2021/01/05 09:57:48;;;;;;;36.20;25.30;;;1.60;99.90;;;2.51;89.09;97388.94;5204561;28;20574;-77
2021/01/05 10:00:21;;;;;;;33.17;24.23;;;1.60;99.90;;;2.62;88.39;97394.84;5194727;28;20237;-77
2021/01/05 10:02:54;;;;;;;39.17;25.57;;;1.60;99.90;;;2.65;88.07;97401.00;5200789;28;20592;-77
2021/01/05 10:05:26;;;;;;;33.87;23.90;;;1.60;99.90;;;2.65;88.82;97402.66;5205035;28;20198;-77
2021/01/05 10:07:59;;;;;;;40.67;25.53;;;1.70;99.90;;;2.66;88.85;97405.31;5198121;28;20504;-77
2021/01/05 10:10:32;;;;;;;33.93;25.23;;;1.70;99.90;;;2.69;88.80;97402.16;5200579;28;20211;-77
2021/01/05 10:13:04;;;;;;;37.30;25.33;;;1.70;99.90;;;2.68;89.18;97406.28;5200668;28;20222;-77
2021/01/05 10:15:36;;;;;;;39.53;26.20;;;1.70;99.90;;;2.68;88.55;97392.81;5203889;28;20292;-77
2021/01/05 10:18:09;;;;;;;37.20;26.27;;;1.70;99.90;;;2.72;88.27;97392.31;5200401;28;20203;-77
2021/01/05 10:20:41;;;;;;;35.90;26.00;;;1.70;99.90;;;2.73;88.16;97395.69;5194446;28;20210;-77
2021/01/05 10:23:13;;;;;;;38.47;26.40;;;1.70;99.90;;;2.67;88.17;97394.44;5191206;28;20222;-77
2021/01/05 10:25:47;;;;;;;43.33;30.97;;;1.80;99.90;;;2.65;88.98;97390.91;5191263;28;20230;-77
2021/01/05 10:28:19;;;;;;;37.53;28.23;;;1.80;99.90;;;2.64;88.69;97389.16;5189942;28;20285;-77
2021/01/05 10:30:51;;;;;;;38.60;27.67;;;1.80;99.90;;;2.68;88.60;97385.22;5207716;28;20205;-77
2021/01/05 10:33:27;;;;;;;39.90;28.37;;;1.70;99.90;;;2.64;88.96;97384.13;5226085;28;20612;-77
2021/01/05 10:36:01;;;;;;;40.53;27.97;;;1.70;99.90;;;2.66;88.88;97382.59;5206973;28;20208;-76
2021/01/05 10:38:33;;;;;;;37.43;27.17;;;1.80;99.90;;;2.63;88.66;97378.94;5192898;28;20206;-77
2021/01/05 10:41:05;;;;;;;37.57;26.10;;;1.80;99.90;;;2.62;89.11;97385.63;5203991;28;20202;-77
2021/01/05 10:43:37;;;;;;;34.93;26.73;;;1.70;99.90;;;2.66;88.62;97381.69;5193743;28;20732;-77
2021/01/05 10:46:10;;;;;;;36.87;25.80;;;1.80;99.90;;;2.67;88.94;97379.31;5194612;28;20300;-77
2021/01/05 10:48:44;;;;;;;35.00;25.30;;;1.80;99.90;;;2.75;89.20;97379.03;5202394;28;20234;-77
2021/01/05 10:51:16;;;;;;;36.43;25.50;;;2.00;99.90;;;2.82;89.43;97378.75;5191269;28;20202;-77
2021/01/05 10:53:48;;;;;;;38.10;26.13;;;2.00;99.90;;;2.78;88.39;97380.16;5187841;28;20684;-77
2021/01/05 10:56:20;;;;;;;37.53;27.50;;;2.00;99.90;;;2.74;88.84;97369.69;5199168;28;20198;-77
2021/01/05 10:58:52;;;;;;;35.67;26.67;;;1.90;99.90;;;2.79;88.29;97373.47;5190630;28;20198;-77
2021/01/05 11:01:25;;;;;;;34.83;25.80;;;2.00;99.90;;;2.79;88.84;97365.91;5199555;28;20218;-77
2021/01/05 11:03:58;;;;;;;36.30;27.17;;;2.00;99.90;;;2.87;88.47;97374.97;5187692;28;20230;-77